Decoded Metar for KACV (ARCATA/EUREKA in CA, USA) (IATA:ACV) | Meteo·Mobile Aviation Weather
aviador You're here:

KACV Decoded Metar

ARCATA/EUREKA in CA, USA
Report Time2018-09-25 11:53:00
UTC Time2018-09-25 12:49:48
Flight Rules vfr VFR
Wind100° at 03 kt
W.Decomp.*RWY 14: 1.6 kt HW 2.5 kt LCW
RWY 01: 0.9 kt HW 2.9 kt RCW
W.Rank100° ranks 6
Current wind is below 100° avg. (3.8)
Visibility9999 m
Phenomena:N/A
Clouds:N/A
CeilingNone
Temp08°C (ISA -7)
Dew Point08°C (100% RH)
AAT6.5°C
QNH1013 hPa
Density Alt-423 ft
Elevation220 ft
Report Wrong Elevation
Raw Report
KACV 251153Z AUTO 10003KT 10SM CLR 08/08 A2990 RMK AO2 SLP128
T00830078 10100 20083 50001=

Extra information for KACV:More info

Metar Taf Metar & Taf Last 4 Metars F.Rules Stats Wind Profile Meteogram Temp Stats Airport Information Weather charts Add Link Nearby VenuesMetar ALERT Operation Metar Decoded Social comments

AIRNAV info for KACV